Time;durP1;ratioP1;P1;durP2;ratioP2;P2;SDS_P1;SDS_P2;PMS_P1;PMS_P2;Temp;Humidity;BMP_temperature;BMP_pressure;BME280_temperature;BME280_humidity;BME280_pressure;Samples;Min_cycle;Max_cycle;Signal;HPM_P1;HPM_P2
2022/07/13 00:02:00;;;;;;;4.15;1.60;;;;;;;23.63;41.94;101728.28;5049606;27;98713;-70
2022/07/13 00:04:27;;;;;;;2.25;1.40;;;;;;;23.60;41.79;101724.97;5048901;27;97141;-70
2022/07/13 00:06:53;;;;;;;2.78;1.30;;;;;;;23.45;42.14;101719.69;5047246;27;96893;-70
2022/07/13 00:09:20;;;;;;;2.33;1.30;;;;;;;23.52;41.79;101716.56;5048862;27;99276;-70
2022/07/13 00:11:47;;;;;;;1.45;1.30;;;;;;;23.54;41.78;101712.78;5048482;27;97757;-71
2022/07/13 00:14:14;;;;;;;5.30;1.30;;;;;;;23.23;42.78;101716.88;5047731;27;96968;-70
2022/07/13 00:16:40;;;;;;;3.15;1.40;;;;;;;23.15;43.11;101719.25;5049408;27;97093;-70
2022/07/13 00:19:07;;;;;;;2.53;1.27;;;;;;;23.03;43.87;101720.16;5047206;27;99244;-70
2022/07/13 00:21:34;;;;;;;3.03;1.38;;;;;;;23.22;43.71;101722.38;5045633;27;98854;-70
2022/07/13 00:24:00;;;;;;;4.05;1.63;;;;;;;23.20;43.97;101719.78;5050184;27;97216;-71
2022/07/13 00:26:26;;;;;;;4.35;1.90;;;;;;;23.51;42.97;101721.09;5049540;27;97283;-72
2022/07/13 00:28:54;;;;;;;2.58;1.42;;;;;;;23.35;43.32;101701.63;5047807;27;99109;-70
2022/07/13 00:31:21;;;;;;;2.67;1.25;;;;;;;23.44;43.28;101701.78;5049360;27;98910;-70
2022/07/13 00:33:47;;;;;;;4.07;1.80;;;;;;;23.37;43.46;101705.91;5048672;27;97356;-70
2022/07/13 00:36:13;;;;;;;3.85;1.75;;;;;;;23.40;43.33;101708.38;5049187;27;96752;-70
2022/07/13 00:38:40;;;;;;;9.30;1.23;;;;;;;23.40;43.34;101705.69;5051543;27;98250;-71
2022/07/13 00:41:06;;;;;;;3.22;1.40;;;;;;;23.50;42.97;101708.59;5050287;27;96780;-70
2022/07/13 00:43:33;;;;;;;4.85;1.08;;;;;;;23.43;43.32;101700.06;5050029;27;96813;-70
2022/07/13 00:46:01;;;;;;;1.55;1.00;;;;;;;23.51;42.69;101702.22;5050811;27;96949;-69
2022/07/13 00:48:28;;;;;;;3.53;1.35;;;;;;;23.40;43.03;101696.72;5052846;27;97867;-70
2022/07/13 00:50:55;;;;;;;1.73;1.25;;;;;;;23.48;43.32;101697.06;5046593;27;99050;-71
2022/07/13 00:53:23;;;;;;;2.45;1.25;;;;;;;23.28;44.36;101694.94;5051001;27;97375;-70
2022/07/13 00:55:50;;;;;;;4.57;1.83;;;;;;;23.14;45.01;101692.41;5053852;27;98459;-71
2022/07/13 00:58:16;;;;;;;3.38;1.45;;;;;;;23.28;44.91;101684.16;5051122;27;98984;-70
2022/07/13 01:00:43;;;;;;;2.72;1.48;;;;;;;23.37;44.82;101680.75;5049209;27;99146;-69
2022/07/13 01:03:11;;;;;;;6.05;1.63;;;;;;;23.35;44.52;101677.34;5052305;27;97171;-70
2022/07/13 01:05:37;;;;;;;1.42;1.20;;;;;;;23.37;44.15;101673.53;5050491;27;97180;-71
2022/07/13 01:08:04;;;;;;;2.80;1.60;;;;;;;23.31;44.43;101679.38;5046514;27;98875;-71
2022/07/13 01:10:31;;;;;;;4.03;1.70;;;;;;;23.44;44.18;101682.03;5050407;27;99237;-70
2022/07/13 01:12:58;;;;;;;3.92;1.50;;;;;;;23.37;44.31;101675.38;5047111;27;97580;-71
2022/07/13 01:15:25;;;;;;;3.10;1.33;;;;;;;23.37;44.60;101673.53;5052112;27;96857;-70
2022/07/13 01:17:51;;;;;;;5.22;1.83;;;;;;;23.50;44.69;101678.91;5050677;27;99257;-70
2022/07/13 01:20:19;;;;;;;2.65;1.50;;;;;;;23.52;44.60;101670.72;5052707;27;97686;-71
2022/07/13 01:22:46;;;;;;;3.97;1.52;;;;;;;23.56;44.42;101674.91;5044637;27;96791;-70
2022/07/13 01:25:15;;;;;;;2.95;1.50;;;;;;;23.48;44.73;101680.00;5052078;27;96847;-70
2022/07/13 01:27:43;;;;;;;3.38;1.90;;;;;;;23.62;44.72;101674.44;5051364;27;100808;-69
2022/07/13 01:30:10;;;;;;;3.55;1.40;;;;;;;23.39;45.52;101671.59;5050819;27;98087;-69
2022/07/13 01:32:44;;;;;;;3.13;1.30;;;;;;;23.22;45.81;101669.31;5049492;27;97196;-70
2022/07/13 01:35:11;;;;;;;4.43;1.60;;;;;;;23.31;45.65;101668.59;5051971;27;97243;-70
2022/07/13 01:37:38;;;;;;;5.88;1.70;;;;;;;23.28;45.75;101671.53;5047103;27;99115;-70
2022/07/13 01:40:06;;;;;;;7.15;2.90;;;;;;;23.40;44.93;101667.94;5051419;27;98801;-70
2022/07/13 01:42:39;;;;;;;5.30;2.95;;;;;;;23.46;44.71;101672.00;5050614;27;98067;-71
2022/07/13 01:45:08;;;;;;;3.95;2.50;;;;;;;23.54;43.90;101679.56;5051539;27;98320;-70
2022/07/13 01:47:37;;;;;;;3.50;1.67;;;;;;;;;;5050318;27;100584;-71
2022/07/13 01:50:04;;;;;;;1.40;1.27;;;;;;;23.74;42.83;101674.38;5047324;27;99163;-70
2022/07/13 01:52:30;;;;;;;3.22;1.23;;;;;;;23.63;43.45;101668.09;5047062;27;97707;-70
2022/07/13 01:54:56;;;;;;;3.38;1.30;;;;;;;23.74;43.17;101670.81;5049021;27;98943;-70
2022/07/13 01:57:23;;;;;;;5.97;1.02;;;;;;;23.97;41.39;101661.81;5049577;27;99107;-69
2022/07/13 01:59:51;;;;;;;2.65;1.63;;;;;;;23.94;42.85;101661.19;5051240;27;99210;-71
2022/07/13 02:02:17;;;;;;;4.22;1.63;;;;;;;24.02;42.63;101654.22;5051930;27;97536;-70
2022/07/13 02:04:44;;;;;;;2.53;1.63;;;;;;;24.07;42.59;101641.22;5051340;27;96977;-70
2022/07/13 02:07:10;;;;;;;2.25;1.30;;;;;;;24.07;41.58;101645.78;5049449;27;97668;-71
2022/07/13 02:09:36;;;;;;;1.20;1.02;;;;;;;24.18;41.22;101638.53;5050903;27;98775;-70
2022/07/13 02:12:03;;;;;;;3.08;1.05;;;;;;;24.02;41.44;101639.88;5048129;27;98636;-71
2022/07/13 02:14:29;;;;;;;2.03;1.17;;;;;;;23.92;41.36;101637.00;5051528;27;96948;-71
2022/07/13 02:16:57;;;;;;;2.60;1.40;;;;;;;23.87;41.76;101641.91;5048101;27;97898;-71
2022/07/13 02:19:23;;;;;;;1.33;1.20;;;;;;;23.88;43.03;101650.88;5050781;27;98899;-70
2022/07/13 02:21:50;;;;;;;2.92;1.50;;;;;;;23.82;43.46;101647.69;5048571;27;97405;-71
2022/07/13 02:24:16;;;;;;;4.90;1.05;;;;;;;23.65;43.96;101649.91;5049731;27;98696;-73
2022/07/13 02:26:42;;;;;;;2.63;1.30;;;;;;;23.66;43.93;101644.41;5048481;27;99075;-72
2022/07/13 02:29:09;;;;;;;6.43;1.48;;;;;;;23.77;42.83;101651.69;5051147;27;98859;-71
2022/07/13 02:31:35;;;;;;;1.77;1.05;;;;;;;23.82;42.60;101652.22;5050293;27;98133;-71
2022/07/13 02:34:03;;;;;;;3.40;1.35;;;;;;;23.80;42.70;101643.38;5051879;27;96779;-71
2022/07/13 02:36:29;;;;;;;2.25;1.00;;;;;;;23.68;43.39;101639.78;5046740;27;99029;-71
2022/07/13 02:38:55;;;;;;;4.50;1.20;;;;;;;23.53;43.95;101654.41;5047430;27;98775;-70
2022/07/13 02:41:22;;;;;;;3.45;1.60;;;;;;;23.90;43.14;101644.34;5048835;27;97302;-71
2022/07/13 02:43:48;;;;;;;1.88;1.00;;;;;;;23.96;43.03;101651.16;5051339;27;97042;-71
2022/07/13 02:46:15;;;;;;;3.10;1.30;;;;;;;24.04;42.41;101649.56;5046610;27;99066;-70
2022/07/13 02:48:41;;;;;;;1.63;1.20;;;;;;;24.02;41.32;101643.44;5046005;27;99104;-71
2022/07/13 02:51:09;;;;;;;1.88;1.60;;;;;;;23.90;41.80;101647.06;5047362;27;96850;-71
2022/07/13 02:53:35;;;;;;;2.13;1.30;;;;;;;23.82;42.18;101649.50;5050424;27;96838;-70
2022/07/13 02:56:02;;;;;;;2.08;1.30;;;;;;;23.72;42.62;101651.19;5050485;27;101787;-70
2022/07/13 02:58:29;;;;;;;3.45;1.10;;;;;;;23.66;42.50;101643.56;5046027;27;98981;-71
2022/07/13 03:00:55;;;;;;;1.42;1.10;;;;;;;23.75;42.61;101651.81;5048076;27;97257;-71
2022/07/13 03:03:21;;;;;;;2.80;1.20;;;;;;;23.75;42.57;101637.47;5051340;27;97369;-71
2022/07/13 03:05:48;;;;;;;2.78;1.33;;;;;;;23.84;42.70;101640.28;5049348;27;99269;-70
2022/07/13 03:08:16;;;;;;;4.32;1.30;;;;;;;23.74;43.85;101644.69;5049169;27;101174;-71
2022/07/13 03:10:42;;;;;;;5.30;1.23;;;;;;;23.81;44.10;101639.69;5049091;27;96994;-70
2022/07/13 03:13:09;;;;;;;5.47;1.83;;;;;;;23.77;43.89;101632.78;5051369;27;97540;-71
2022/07/13 03:15:35;;;;;;;2.30;1.27;;;;;;;23.90;44.29;101625.47;5049978;27;99750;-70
2022/07/13 03:18:01;;;;;;;2.55;1.42;;;;;;;23.94;44.69;101634.19;5049686;27;99484;-70
2022/07/13 03:20:28;;;;;;;3.55;1.35;;;;;;;23.89;44.54;101628.31;5048561;27;97776;-70
2022/07/13 03:22:54;;;;;;;6.50;1.60;;;;;;;23.91;44.73;101635.28;5049934;27;97992;-70
2022/07/13 03:25:22;;;;;;;2.78;1.40;;;;;;;23.82;44.49;101622.53;5050652;27;98652;-70
2022/07/13 03:27:48;;;;;;;2.97;1.20;;;;;;;23.89;44.14;101618.38;5048528;27;99639;-68
2022/07/13 03:30:15;;;;;;;5.35;1.15;;;;;;;23.91;44.15;101621.78;5049899;27;97005;-70
2022/07/13 03:32:41;;;;;;;1.85;1.35;;;;;;;23.61;45.21;101627.72;5049509;27;97530;-70
2022/07/13 03:35:08;;;;;;;3.92;1.52;;;;;;;23.78;44.99;101627.28;5043085;27;99149;-70
2022/07/13 03:37:34;;;;;;;3.85;1.52;;;;;;;23.73;45.14;101631.31;5048532;27;98524;-69
2022/07/13 03:40:01;;;;;;;1.20;1.00;;;;;;;23.77;44.79;101625.56;5050258;27;96831;-69
2022/07/13 03:42:28;;;;;;;2.65;0.90;;;;;;;23.87;44.18;101609.53;5050592;27;97475;-71
2022/07/13 03:44:55;;;;;;;4.88;1.58;;;;;;;23.92;43.38;101612.72;5050149;27;99229;-70
2022/07/13 03:47:21;;;;;;;3.67;1.13;;;;;;;23.77;43.15;101612.06;5048733;27;99262;-70
2022/07/13 03:49:47;;;;;;;3.85;1.50;;;;;;;23.76;43.63;101615.72;5049634;27;97269;-70
2022/07/13 03:52:14;;;;;;;1.17;0.90;;;;;;;23.82;43.23;101614.44;5046842;27;97211;-71
2022/07/13 03:54:40;;;;;;;1.88;1.10;;;;;;;24.03;43.15;101601.94;5048678;27;99019;-70
2022/07/13 03:57:07;;;;;;;6.22;1.55;;;;;;;24.05;42.67;101609.91;5048671;27;99366;-70
2022/07/13 03:59:34;;;;;;;4.82;1.10;;;;;;;24.00;43.04;101610.28;5049886;27;96848;-70
2022/07/13 04:02:01;;;;;;;2.53;1.20;;;;;;;23.99;43.06;101611.25;5044242;27;97122;-70
2022/07/13 04:04:27;;;;;;;1.27;1.17;;;;;;;24.04;42.62;101609.06;5048713;27;99386;-71
2022/07/13 04:06:54;;;;;;;4.95;1.50;;;;;;;24.23;42.47;101612.06;5048161;27;99057;-70
2022/07/13 04:09:20;;;;;;;5.88;1.30;;;;;;;24.06;42.75;101604.41;5046996;27;97615;-69
2022/07/13 04:11:48;;;;;;;1.67;0.93;;;;;;;24.16;42.69;101604.53;5049673;27;97111;-71
2022/07/13 04:14:14;;;;;;;2.85;1.42;;;;;;;24.34;42.16;101599.56;5045640;27;99056;-70
2022/07/13 04:16:42;;;;;;;3.55;1.35;;;;;;;24.33;42.10;101593.31;5047649;27;97749;-70
2022/07/13 04:19:08;;;;;;;3.28;1.20;;;;;;;24.45;41.83;101596.84;5047069;27;97357;-72
2022/07/13 04:21:35;;;;;;;2.75;1.20;;;;;;;24.46;42.12;101598.56;5047351;27;96941;-70
2022/07/13 04:24:01;;;;;;;5.03;1.30;;;;;;;24.36;42.36;101602.97;5047158;27;99186;-69
2022/07/13 04:26:28;;;;;;;2.78;1.05;;;;;;;24.37;42.41;101602.00;5048035;27;99267;-70
2022/07/13 04:28:54;;;;;;;6.07;0.93;;;;;;;24.41;42.32;101598.97;5049396;27;96957;-69
2022/07/13 04:31:21;;;;;;;4.65;1.00;;;;;;;24.41;42.12;101598.09;5045311;27;97341;-70
2022/07/13 04:33:49;;;;;;;1.17;1.00;;;;;;;24.51;41.87;101607.16;5044136;27;99023;-70
2022/07/13 04:36:16;;;;;;;3.03;1.40;;;;;;;24.60;41.94;101611.84;5049362;27;98933;-70
2022/07/13 04:38:42;;;;;;;3.45;1.30;;;;;;;24.75;41.38;101604.31;5046006;27;97853;-69
2022/07/13 04:41:09;;;;;;;4.57;1.52;;;;;;;24.59;42.19;101600.16;5046755;27;96868;-70
2022/07/13 04:43:35;;;;;;;3.35;0.90;;;;;;;24.67;41.87;101607.66;5044864;27;98782;-70
2022/07/13 04:46:02;;;;;;;5.00;0.95;;;;;;;24.62;42.00;101604.44;5042873;27;99446;-69
2022/07/13 04:48:29;;;;;;;4.68;1.15;;;;;;;24.56;42.06;101605.81;5047494;27;97315;-69
2022/07/13 04:50:57;;;;;;;1.85;1.05;;;;;;;24.61;41.67;101600.88;5047209;27;97152;-70
2022/07/13 04:53:23;;;;;;;2.25;0.98;;;;;;;24.76;41.86;101601.50;5044661;27;99512;-70
2022/07/13 04:55:49;;;;;;;4.40;1.30;;;;;;;24.83;41.67;101591.03;5047270;27;99298;-70
2022/07/13 04:58:16;;;;;;;1.40;0.90;;;;;;;25.06;41.19;101597.28;5045012;27;96991;-70
2022/07/13 05:00:42;;;;;;;2.35;0.98;;;;;;;25.05;41.18;101604.53;5047760;27;97561;-70
2022/07/13 05:03:08;;;;;;;1.58;0.90;;;;;;;24.98;41.50;101596.09;5046496;27;99448;-70
2022/07/13 05:05:35;;;;;;;8.95;1.20;;;;;;;25.20;40.94;101597.00;5046893;27;98884;-69
2022/07/13 05:08:03;;;;;;;3.30;1.42;;;;;;;25.17;40.76;101599.97;5047153;27;96753;-71
2022/07/13 05:10:30;;;;;;;3.58;1.10;;;;;;;25.16;40.88;101603.63;5047571;27;97288;-71
2022/07/13 05:12:56;;;;;;;4.20;1.33;;;;;;;25.19;41.13;101606.09;5048607;27;102133;-71
2022/07/13 05:15:23;;;;;;;4.80;1.10;;;;;;;25.21;40.66;101612.22;5043100;27;98841;-71
2022/07/13 05:17:50;;;;;;;1.50;1.20;;;;;;;25.14;40.99;101611.03;5047256;27;98486;-71
2022/07/13 05:20:16;;;;;;;5.18;1.70;;;;;;;25.17;40.80;101608.06;5047435;27;96808;-71
2022/07/13 05:22:43;;;;;;;6.22;1.20;;;;;;;25.21;40.64;101610.38;5046791;27;99435;-71
2022/07/13 05:25:11;;;;;;;2.75;1.17;;;;;;;25.39;40.58;101600.75;5051886;27;98736;-71
2022/07/13 05:27:37;;;;;;;1.23;1.13;;;;;;;25.19;40.69;101598.00;5047645;27;97232;-70
2022/07/13 05:30:04;;;;;;;2.85;1.27;;;;;;;25.37;40.55;101604.56;5050612;27;96935;-71
2022/07/13 05:32:31;;;;;;;2.47;1.15;;;;;;;25.44;40.38;101596.78;5045591;27;101255;-71
2022/07/13 05:34:57;;;;;;;10.88;1.60;;;;;;;25.54;40.57;101601.28;5049996;27;97569;-71
2022/07/13 05:37:23;;;;;;;4.13;1.10;;;;;;;25.66;39.99;101588.59;5051635;27;96916;-72
2022/07/13 05:39:50;;;;;;;1.10;0.95;;;;;;;25.78;40.10;101591.13;5050534;27;98272;-72
2022/07/13 05:42:18;;;;;;;2.15;1.00;;;;;;;25.83;40.35;101593.41;5049717;27;99050;-71
2022/07/13 05:44:44;;;;;;;4.38;1.30;;;;;;;25.82;39.74;101591.69;5051729;27;99273;-71
2022/07/13 05:47:10;;;;;;;4.22;1.10;;;;;;;26.07;39.32;101596.69;5051430;27;96778;-72
2022/07/13 05:49:37;;;;;;;3.38;0.75;;;;;;;26.05;39.73;101598.69;5051523;27;98857;-70
2022/07/13 05:52:03;;;;;;;4.45;1.10;;;;;;;25.98;39.71;101604.78;5051010;27;99112;-71
2022/07/13 05:54:30;;;;;;;2.75;1.20;;;;;;;26.12;39.55;101597.13;5050287;27;100760;-71
2022/07/13 05:56:57;;;;;;;2.97;1.00;;;;;;;26.14;39.63;101605.13;5050856;27;97179;-70
2022/07/13 05:59:25;;;;;;;5.38;1.20;;;;;;;26.09;40.15;101607.41;5050435;27;96843;-70
2022/07/13 06:01:51;;;;;;;3.22;1.25;;;;;;;25.99;40.39;101609.19;5047731;27;99249;-71
2022/07/13 06:04:17;;;;;;;2.90;1.10;;;;;;;26.26;39.49;101606.78;5047741;27;98840;-70
2022/07/13 06:06:44;;;;;;;3.05;1.20;;;;;;;26.27;39.72;101596.81;5049371;27;97233;-72
2022/07/13 06:09:11;;;;;;;1.83;1.17;;;;;;;25.99;39.95;101588.38;5044883;27;97031;-70
2022/07/13 06:11:38;;;;;;;1.23;0.88;;;;;;;26.14;39.83;101600.59;5048500;27;98960;-70
2022/07/13 06:14:04;;;;;;;7.15;1.48;;;;;;;26.29;39.73;101598.41;5051815;27;98838;-70
2022/07/13 06:16:32;;;;;;;6.35;1.05;;;;;;;26.36;39.40;101602.31;5050494;27;97239;-70
2022/07/13 06:18:58;;;;;;;3.67;1.00;;;;;;;26.38;39.47;101605.75;5051553;27;97345;-70
2022/07/13 06:21:24;;;;;;;5.43;1.25;;;;;;;26.42;38.94;101593.63;5048421;27;98909;-70
2022/07/13 06:23:51;;;;;;;7.57;2.40;;;;;;;26.68;38.75;101602.13;5050563;27;98241;-70
2022/07/13 06:26:17;;;;;;;6.63;1.80;;;;;;;26.68;38.59;101588.59;5047131;27;97306;-70
2022/07/13 06:28:43;;;;;;;5.28;1.67;;;;;;;26.98;38.11;101586.84;5047767;27;97213;-70
2022/07/13 06:31:10;;;;;;;3.85;2.50;;;;;;;27.05;37.82;101594.25;5045814;27;97887;-70
2022/07/13 06:33:37;;;;;;;3.40;1.50;;;;;;;27.11;37.74;101590.16;5047791;27;99280;-71
2022/07/13 06:36:04;;;;;;;6.40;2.40;;;;;;;27.28;37.80;101584.00;5048324;27;98516;-71
2022/07/13 06:38:31;;;;;;;4.05;1.33;;;;;;;27.42;37.59;101589.03;5051397;27;97339;-70
2022/07/13 06:40:57;;;;;;;2.90;1.33;;;;;;;27.41;37.78;101584.59;5048612;27;97693;-70
2022/07/13 06:43:23;;;;;;;2.90;1.27;;;;;;;27.61;37.26;101585.47;5043289;27;99007;-70
2022/07/13 06:45:50;;;;;;;6.32;1.30;;;;;;;27.48;37.51;101588.44;5048220;27;97379;-70
2022/07/13 06:48:16;;;;;;;5.25;1.50;;;;;;;27.75;37.16;101591.31;5044008;27;98480;-71
2022/07/13 06:50:44;;;;;;;10.32;1.33;;;;;;;27.78;37.20;101587.44;5046181;27;98996;-71
2022/07/13 06:53:11;;;;;;;7.72;1.90;;;;;;;28.09;36.46;101590.81;5046630;27;98913;-71
2022/07/13 06:55:37;;;;;;;3.47;1.30;;;;;;;27.98;36.87;101582.81;5048880;27;97279;-71
2022/07/13 06:58:04;;;;;;;10.93;1.40;;;;;;;28.11;36.75;101583.34;5048962;27;97186;-70
2022/07/13 07:00:30;;;;;;;4.78;1.33;;;;;;;28.13;36.38;101571.34;5046957;27;99089;-70
2022/07/13 07:02:57;;;;;;;17.35;2.10;;;;;;;28.04;36.52;101569.50;5049537;27;99270;-71
2022/07/13 07:05:24;;;;;;;1.75;1.10;;;;;;;28.14;36.87;101562.22;5045457;27;98421;-70
2022/07/13 07:07:52;;;;;;;4.25;0.98;;;;;;;28.46;36.09;101560.94;5044107;27;96866;-71
2022/07/13 07:10:19;;;;;;;21.30;2.40;;;;;;;28.35;36.23;101553.84;5042706;27;98859;-71
2022/07/13 07:12:45;;;;;;;8.48;1.40;;;;;;;28.61;36.02;101553.16;5045227;27;99197;-71
2022/07/13 07:15:12;;;;;;;10.90;1.10;;;;;;;28.52;35.88;101544.88;5047507;27;97211;-70
2022/07/13 07:17:45;;;;;;;5.47;1.08;;;;;;;28.39;36.02;101538.94;5047279;27;97401;-69
2022/07/13 07:20:12;;;;;;;8.18;1.20;;;;;;;28.51;35.75;101537.72;5042072;27;98831;-70
2022/07/13 07:22:39;;;;;;;3.10;1.15;;;;;;;28.55;35.24;101532.88;5048541;27;98849;-71
2022/07/13 07:25:08;;;;;;;6.47;0.90;;;;;;;28.36;35.75;101528.34;5047381;27;96806;-70
2022/07/13 07:27:34;;;;;;;4.07;1.10;;;;;;;28.51;35.50;101521.41;5046039;27;97059;-70
2022/07/13 07:30:01;;;;;;;3.13;1.17;;;;;;;28.76;35.20;101524.44;5048158;27;100718;-71
2022/07/13 07:32:27;;;;;;;2.92;0.85;;;;;;;28.77;34.99;101524.28;5046623;27;98283;-70
2022/07/13 07:34:54;;;;;;;10.23;1.45;;;;;;;28.70;35.54;101523.16;5043275;27;96813;-71
2022/07/13 07:37:21;;;;;;;7.55;1.00;;;;;;;28.97;34.96;101532.31;5035012;27;97395;-70
2022/07/13 07:39:47;;;;;;;1.50;0.90;;;;;;;29.06;34.61;101532.25;5046680;27;99245;-71
2022/07/13 07:42:15;;;;;;;6.35;1.60;;;;;;;29.19;34.27;101531.88;5046340;27;99067;-69
2022/07/13 07:44:42;;;;;;;7.65;1.30;;;;;;;29.28;33.95;101533.63;5047938;27;98606;-70
2022/07/13 07:47:08;;;;;;;3.80;1.17;;;;;;;29.43;33.79;101528.53;5046093;27;98514;-70
2022/07/13 07:49:35;;;;;;;3.72;0.90;;;;;;;29.07;34.09;101533.13;5047035;27;98968;-71
2022/07/13 07:52:01;;;;;;;5.63;1.00;;;;;;;29.27;33.89;101531.94;5044733;27;97499;-70
2022/07/13 07:54:28;;;;;;;4.47;1.02;;;;;;;29.27;33.55;101521.06;5045291;27;97367;-70
2022/07/13 07:56:57;;;;;;;3.15;1.10;;;;;;;29.51;33.16;101524.00;5044308;27;97345;-70
2022/07/13 07:59:25;;;;;;;2.22;0.98;;;;;;;29.55;32.49;101516.34;5040957;27;99555;-70
2022/07/13 08:01:51;;;;;;;1.55;0.90;;;;;;;29.93;32.61;101526.03;5043212;27;98410;-70
2022/07/13 08:04:17;;;;;;;1.23;1.00;;;;;;;30.02;32.46;101525.91;5035854;27;99879;-70
2022/07/13 08:06:44;;;;;;;3.08;1.05;;;;;;;29.51;32.57;101525.88;5045207;27;97720;-71
2022/07/13 08:09:10;;;;;;;7.35;1.33;;;;;;;29.71;32.28;101525.53;5047028;27;99411;-71
2022/07/13 08:11:37;;;;;;;2.03;0.90;;;;;;;29.77;31.65;101520.44;5042421;27;98891;-71
2022/07/13 08:14:03;;;;;;;1.38;0.90;;;;;;;29.77;31.87;101520.44;5044353;27;97170;-70
2022/07/13 08:16:31;;;;;;;2.25;0.90;;;;;;;29.89;31.21;101510.97;5032087;27;97396;-70
2022/07/13 08:18:58;;;;;;;1.23;0.90;;;;;;;29.89;31.47;101511.84;5041934;27;99133;-70
2022/07/13 08:21:26;;;;;;;2.65;0.80;;;;;;;29.63;31.56;101509.09;5043450;27;99679;-71
2022/07/13 08:23:52;;;;;;;8.93;1.00;;;;;;;29.14;32.46;101517.88;5043445;27;97098;-69
2022/07/13 08:26:19;;;;;;;3.28;0.93;;;;;;;29.31;32.72;101503.38;5040596;27;97372;-71
2022/07/13 08:28:45;;;;;;;3.35;1.10;;;;;;;29.70;31.76;101502.00;5040514;27;98245;-72
2022/07/13 08:31:12;;;;;;;2.10;1.00;;;;;;;29.89;31.75;101498.22;5045087;27;97563;-71
2022/07/13 08:39:09;;;;;;;1.70;0.93;;;;;;;30.83;31.11;101495.41;5039854;27;97252;-71
2022/07/13 08:41:39;;;;;;;1.60;0.80;;;;;;;31.01;30.52;101485.19;5046356;27;99059;-71
2022/07/13 08:44:08;;;;;;;2.35;1.00;;;;;;;31.52;29.37;101475.78;5044858;27;98583;-71
2022/07/13 08:46:35;;;;;;;1.38;0.80;;;;;;;31.40;29.24;101471.72;5045094;27;97021;-71
2022/07/13 08:49:04;;;;;;;2.83;0.90;;;;;;;31.74;28.86;101479.72;5043714;27;97631;-71
2022/07/13 08:51:34;;;;;;;5.70;1.10;;;;;;;31.49;28.97;101478.88;5043231;27;99445;-70
2022/07/13 08:54:02;;;;;;;1.50;1.10;;;;;;;31.47;29.20;101478.19;5045427;27;97706;-71
2022/07/13 08:56:28;;;;;;;2.55;1.10;;;;;;;31.48;29.40;101482.66;5043060;27;98582;-71
2022/07/13 08:58:55;;;;;;;2.42;0.90;;;;;;;31.40;28.99;101479.06;5045955;27;98947;-71
2022/07/13 09:01:21;;;;;;;1.27;0.80;;;;;;;31.40;28.66;101479.06;5048696;27;102585;-69
2022/07/13 09:03:51;;;;;;;3.33;0.90;;;;;;;31.45;29.47;101477.50;5044467;27;99915;-70
2022/07/13 09:06:44;;;;;;;4.13;1.30;;;;;;;31.90;28.78;101471.47;5041465;27;100535;-71
2022/07/13 09:09:32;;;;;;;1.73;1.02;;;;;;;31.97;28.44;101467.00;5047404;27;98941;-70
2022/07/13 09:12:17;;;;;;;5.28;1.10;;;;;;;32.45;28.02;101473.31;5044595;27;101560;-70
2022/07/13 09:14:51;;;;;;;2.58;1.13;;;;;;;32.37;27.82;101470.63;5049465;27;96808;-70
2022/07/13 09:17:33;;;;;;;7.18;1.00;;;;;;;32.19;28.29;101472.75;5045588;27;97362;-71
2022/07/13 09:20:15;;;;;;;4.03;1.05;;;;;;;32.24;28.30;101464.88;5047163;27;101256;-71
2022/07/13 09:22:48;;;;;;;4.20;1.20;;;;;;;32.09;27.74;101464.75;5049365;27;97749;-71
2022/07/13 09:25:25;;;;;;;1.10;0.93;;;;;;;32.52;27.10;101462.50;5045886;27;97438;-70
2022/07/13 09:27:52;;;;;;;2.78;1.05;;;;;;;33.01;27.01;101461.19;5048205;27;97397;-70
2022/07/13 09:30:23;;;;;;;3.03;1.17;;;;;;;32.99;26.85;101454.19;5050319;27;99792;-70
2022/07/13 09:32:50;;;;;;;2.58;0.90;;;;;;;32.66;26.76;101454.38;5049247;27;99378;-71
2022/07/13 09:35:28;;;;;;;4.53;1.30;;;;;;;32.12;27.67;101450.72;5049898;27;97375;-72
2022/07/13 09:37:57;;;;;;;2.00;0.80;;;;;;;32.11;27.73;101448.16;5046353;27;96747;-70
2022/07/13 09:40:24;;;;;;;1.50;0.95;;;;;;;32.09;27.58;101458.44;5046204;27;99091;-71
2022/07/13 09:46:08;;;;;;;6.45;1.10;;;;;;;32.33;27.72;101458.34;5045781;27;98277;-71
2022/07/13 09:48:33;;;;;;;1.58;1.17;;;;;;;33.24;26.64;101455.69;5043834;27;97836;-71
2022/07/13 09:50:59;;;;;;;5.68;1.05;;;;;;;33.21;26.57;101439.66;5047244;27;101525;-73
2022/07/13 09:53:29;;;;;;;1.73;0.90;;;;;;;33.53;26.39;101441.22;5049563;27;97739;-71
2022/07/13 09:55:57;;;;;;;3.42;0.90;;;;;;;33.60;26.01;101444.91;5049067;27;96740;-71
2022/07/13 09:58:28;;;;;;;5.85;1.33;;;;;;;33.79;25.74;101438.91;5047850;27;98749;-71
2022/07/13 10:00:55;;;;;;;5.53;1.40;;;;;;;33.41;26.19;101431.75;5046706;27;99057;-71
2022/07/13 10:03:22;;;;;;;2.38;1.00;;;;;;;33.48;25.90;101430.78;5049189;27;98652;-71
2022/07/13 10:05:50;;;;;;;32.83;2.28;;;;;;;33.34;26.73;101439.03;5046569;27;97506;-72
2022/07/13 10:08:18;;;;;;;3.83;1.13;;;;;;;33.66;26.44;101437.81;5045803;27;97360;-72
2022/07/13 10:10:47;;;;;;;3.83;1.08;;;;;;;33.57;26.33;101437.91;5050696;27;99007;-71
2022/07/13 10:13:14;;;;;;;3.90;1.20;;;;;;;33.41;26.02;101435.31;5047115;27;98967;-72
2022/07/13 10:15:41;;;;;;;2.72;1.40;;;;;;;33.69;26.50;101429.22;5046803;27;98109;-70
2022/07/13 10:18:10;;;;;;;2.35;1.20;;;;;;;33.49;26.12;101432.50;5046577;27;97303;-72
2022/07/13 10:20:41;;;;;;;1.02;0.70;;;;;;;32.72;26.94;101437.28;5046662;27;99026;-71
2022/07/13 10:23:07;;;;;;;5.07;0.95;;;;;;;33.06;26.37;101431.38;5045018;27;99523;-71
2022/07/13 10:25:44;;;;;;;2.63;1.10;;;;;;;33.17;26.02;101427.31;5048003;27;97214;-70
2022/07/13 10:28:12;;;;;;;2.42;0.77;;;;;;;33.12;25.97;101424.28;5044936;27;97322;-70
2022/07/13 10:30:39;;;;;;;3.10;0.90;;;;;;;33.31;26.07;101417.47;5047440;27;99106;-72
2022/07/13 10:33:19;;;;;;;2.90;0.50;;;;;;;33.50;25.77;101415.03;5050827;27;98926;-71
2022/07/13 10:35:50;;;;;;;2.75;0.90;;;;;;;33.32;25.96;101417.28;5044369;27;96867;-73
2022/07/13 10:38:18;;;;;;;3.20;0.80;;;;;;;33.70;25.55;101409.00;5049625;27;97776;-71
2022/07/13 10:40:45;;;;;;;3.65;0.80;;;;;;;32.54;25.98;101423.00;5046509;27;97924;-71
2022/07/13 10:43:17;;;;;;;3.25;0.80;;;;;;;32.39;26.10;101416.59;5049561;27;99261;-70
2022/07/13 10:45:48;;;;;;;3.33;1.02;;;;;;;32.81;26.13;101411.56;5048108;27;96817;-71
2022/07/13 10:48:43;;;;;;;3.42;0.77;;;;;;;33.21;25.64;101418.56;5047519;27;97869;-71
2022/07/13 10:51:18;;;;;;;1.48;0.85;;;;;;;33.33;25.43;101423.63;5045416;27;99376;-71
2022/07/13 10:54:13;;;;;;;2.13;0.80;;;;;;;33.07;24.29;101411.16;5047091;27;98959;-71
2022/07/13 10:57:13;;;;;;;1.73;0.85;;;;;;;32.73;25.12;101408.88;5044972;27;96827;-72
2022/07/13 10:59:48;;;;;;;5.00;0.85;;;;;;;32.92;25.51;101418.47;5046123;27;97575;-71
2022/07/13 11:02:44;;;;;;;2.83;0.80;;;;;;;32.62;24.24;101412.03;5044871;27;99300;-72
2022/07/13 11:05:11;;;;;;;1.30;1.00;;;;;;;32.34;23.98;101400.75;5047541;27;97603;-71
2022/07/13 11:07:42;;;;;;;4.13;1.42;;;;;;;31.98;23.81;101403.13;5048014;27;96875;-71
2022/07/13 11:10:17;;;;;;;2.67;1.05;;;;;;;32.08;23.93;101402.91;5045460;27;97907;-72
2022/07/13 11:13:01;;;;;;;2.00;0.90;;;;;;;32.56;22.44;101412.72;5046909;27;98894;-70
2022/07/13 11:15:52;;;;;;;3.22;0.90;;;;;;;32.95;22.75;101407.13;5045820;27;97320;-72
2022/07/13 11:18:32;;;;;;;5.25;1.40;;;;;;;33.06;22.96;101406.72;5038021;27;101601;-71
2022/07/13 11:21:01;;;;;;;3.38;0.82;;;;;;;32.26;24.73;101402.66;5045923;27;97429;-72
2022/07/13 11:26:32;;;;;;;1.85;0.82;;;;;;;31.94;25.79;101404.50;5045717;27;97118;-72
2022/07/13 11:29:10;;;;;;;4.15;1.25;;;;;;;32.43;25.29;101402.38;5045658;27;98514;-72
2022/07/13 11:31:39;;;;;;;2.90;1.00;;;;;;;32.08;26.24;101397.44;5048921;27;98045;-72
2022/07/13 11:34:06;;;;;;;4.90;1.20;;;;;;;32.18;25.97;101402.72;5046696;27;98173;-71
2022/07/13 11:36:33;;;;;;;6.47;1.27;;;;;;;32.36;26.07;101400.56;5044363;27;101194;-71
2022/07/13 11:38:59;;;;;;;5.25;1.10;;;;;;;32.45;26.21;101396.72;5047556;27;97020;-71
2022/07/13 11:41:26;;;;;;;5.03;1.38;;;;;;;32.51;25.71;101392.41;5044905;27;97549;-70